Terminal Aerodrome Forecast
Issued by NWS Charleston, WV

Current Version | Previous Version | Graphics & Text | Print | Product List | Glossary On
Versions: 1 2 3 4 5 6 7 8 9 10 11 12 13 14 15 16 17 18 19 20 21 22 23 24
000
FTUS41 KRLX 072300
TAFCRW
TAF
KCRW 072320Z 0800/0824 23009G16KT P6SM SCT060
     FM080300 22008KT P6SM SCT060
     FM081100 21006KT P6SM BKN040
     FM081500 22011KT P6SM BKN040
     FM081700 21013G19KT P6SM VCTS BKN040CB
     FM082000 22014G22KT 6SM +TSRA BR BKN040CB=

USA.gov is the U.S. government's official web portal to all federal, state and local government web resources and services.